Time;durP1;ratioP1;P1;durP2;ratioP2;P2;SDS_P1;SDS_P2;PMS_P1;PMS_P2;Temp;Humidity;BMP_temperature;BMP_pressure;BME280_temperature;BME280_humidity;BME280_pressure;Samples;Min_cycle;Max_cycle;Signal;HPM_P1;HPM_P2
2022/12/22 03:35:56;;;;;;;19.17;3.67;;;;;;;2.72;100.00;100522.69;38443356;23;20044;-86
2022/12/22 04:09:04;;;;;;;12.40;3.07;;;;;;;3.51;100.00;100482.63;31627732;27;2252217;-71
2022/12/22 04:24:07;;;;;;;14.93;4.70;;;;;;;3.70;100.00;100466.41;31603910;28;20044;-72
2022/12/22 04:39:09;;;;;;;21.30;7.13;;;;;;;3.78;100.00;100474.56;31592262;28;20055;-72
2022/12/22 04:54:11;;;;;;;83.93;11.47;;;;;;;3.80;100.00;100480.34;31585700;28;20402;-72
2022/12/22 05:09:12;;;;;;;44.67;10.03;;;;;;;3.92;100.00;100501.63;31538760;28;20057;-71
2022/12/22 05:24:15;;;;;;;25.10;9.87;;;;;;;3.82;100.00;100492.25;31537893;28;20523;-72
2022/12/22 05:39:16;;;;;;;29.30;10.53;;;;;;;3.84;100.00;100505.31;31520946;28;20076;-73
2022/12/22 05:54:19;;;;;;;26.47;9.97;;;;;;;4.08;100.00;100531.75;31568185;28;20120;-71
2022/12/22 06:09:20;;;;;;;21.67;9.17;;;;;;;4.14;100.00;100564.47;31439967;28;20052;-72
2022/12/22 06:24:23;;;;;;;16.87;5.47;;;;;;;4.19;100.00;100556.88;31549797;28;20081;-71
2022/12/22 06:39:25;;;;;;;19.80;7.10;;;;;;;4.61;100.00;100572.00;31556045;28;20049;-73
2022/12/22 06:54:27;;;;;;;34.67;17.03;;;;;;;5.21;100.00;100599.53;31481004;28;20057;-71
2022/12/22 07:09:28;;;;;;;10.93;6.77;;;;;;;6.00;100.00;100619.88;31422956;28;20126;-73
2022/12/22 07:24:31;;;;;;;14.43;6.87;;;;;;;6.30;97.61;100650.13;31468659;28;20137;-74
2022/12/22 07:39:33;;;;;;;21.43;10.87;;;;;;;6.24;97.28;100662.41;31466512;28;20057;-73
2022/12/22 07:54:35;;;;;;;27.07;15.23;;;;;;;6.29;95.78;100648.56;31517191;28;20109;-74
2022/12/22 08:09:42;;;;;;;14.80;9.43;;;;;;;6.79;92.66;100651.56;31472864;28;20056;-72
2022/12/22 08:24:45;;;;;;;25.50;14.43;;;;;;;6.71;89.17;100656.13;31482553;28;20106;-72
2022/12/22 08:39:51;;;;;;;6.23;4.23;;;;;;;7.17;89.37;100650.91;31500010;28;20047;-72
2022/12/22 08:54:53;;;;;;;15.07;8.33;;;;;;;7.17;87.46;100664.41;31489151;28;20390;-82
2022/12/22 09:09:56;;;;;;;12.43;6.70;;;;;;;6.95;90.04;100659.31;31479084;28;20456;-81
2022/12/22 09:25:01;;;;;;;8.63;4.23;;;;;;;7.40;88.97;100639.00;31484994;28;20055;-79
2022/12/22 09:40:03;;;;;;;9.50;5.00;;;;;;;7.59;88.50;100627.81;31451412;28;20048;-80
2022/12/22 09:55:18;;;;;;;9.67;4.80;;;;;;;8.07;88.49;100619.31;31437968;28;20056;-80
2022/12/22 10:10:42;;;;;;;12.33;4.83;;;;;;;8.63;86.37;100596.81;31463917;28;20063;-89
2022/12/22 10:25:57;;;;;;;9.23;4.33;;;;;;;9.39;83.79;100606.84;31470011;28;20099;-74
2022/12/22 10:41:21;;;;;;;6.50;4.20;;;;;;;10.12;81.79;100595.03;31439627;28;20549;-79
2022/12/22 10:56:26;;;;;;;9.20;4.93;;;;;;;11.31;77.42;100610.25;31453213;28;20064;-82
2022/12/22 11:11:38;;;;;;;10.53;5.47;;;;;;;10.77;73.59;100617.59;31453784;28;20040;-77
2022/12/22 11:27:14;;;;;;;6.80;4.30;;;;;;;10.64;74.34;100595.63;31454624;28;20049;-74
2022/12/22 11:42:34;;;;;;;12.33;6.07;;;;;;;11.92;71.85;100589.09;31463218;28;20049;-71
2022/12/22 11:57:39;;;;;;;19.87;9.30;;;;;;;10.84;72.42;100584.91;31482768;28;20546;-74
2022/12/22 12:12:51;;;;;;;12.77;6.73;;;;;;;10.36;75.31;100576.97;31456081;28;20139;-73
2022/12/22 12:28:20;;;;;;;3.20;1.97;;;;;;;9.72;76.04;100575.59;31499304;28;20106;-73
2022/12/22 12:43:22;;;;;;;7.13;3.40;;;;;;;9.25;74.06;100585.25;31486800;28;20052;-73
2022/12/22 12:58:48;;;;;;;8.20;3.77;;;;;;;9.11;74.85;100580.72;31498298;28;20047;-85
2022/12/22 13:13:51;;;;;;;11.33;3.67;;;;;;;8.88;76.90;100566.91;31464895;28;20051;-85
2022/12/22 13:29:10;;;;;;;7.10;3.57;;;;;;;8.83;76.89;100570.03;31457036;28;20055;-72
2022/12/22 13:44:20;;;;;;;7.50;3.97;;;;;;;8.51;75.51;100587.16;31430581;28;20057;-81
2022/12/22 13:59:27;;;;;;;5.87;3.00;;;;;;;8.19;74.66;100584.56;31472220;28;20053;-81
2022/12/22 14:14:37;;;;;;;7.13;2.93;;;;;;;7.78;74.85;100573.41;31458030;28;20102;-78
2022/12/22 14:29:40;;;;;;;6.63;3.50;;;;;;;7.65;73.95;100568.78;31471200;28;20477;-79
2022/12/22 14:44:44;;;;;;;5.40;3.40;;;;;;;7.62;72.96;100570.31;31569259;28;20105;-79
2022/12/22 15:00:26;;;;;;;9.57;4.83;;;;;;;7.67;72.04;100574.56;31468461;28;20045;-80
2022/12/22 15:15:30;;;;;;;8.13;4.60;;;;;;;7.68;71.17;100574.19;31437435;28;20107;-74
2022/12/22 15:30:32;;;;;;;10.03;4.37;;;;;;;7.73;72.05;100565.69;31459367;28;20057;-74
2022/12/22 15:45:37;;;;;;;8.67;4.70;;;;;;;7.86;72.77;100558.72;31445376;28;20051;-74
2022/12/22 16:00:49;;;;;;;5.60;3.37;;;;;;;7.76;74.21;100564.94;31485283;28;20057;-83
2022/12/22 16:15:54;;;;;;;6.93;3.77;;;;;;;7.72;76.36;100541.75;31448350;28;20057;-83
2022/12/22 16:30:58;;;;;;;9.65;4.45;;;;;;;7.32;80.38;100540.22;31464920;28;20460;-73
2022/12/22 16:46:00;;;;;;;14.03;6.53;;;;;;;7.22;83.81;100541.75;31458663;28;20048;-83
2022/12/22 17:01:02;;;;;;;13.30;6.87;;;;;;;7.04;87.76;100498.56;31427147;28;20331;-83
2022/12/22 17:16:04;;;;;;;13.20;6.20;;;;;;;6.61;94.71;100459.16;31468040;28;20048;-74
2022/12/22 17:31:06;;;;;;;16.40;7.57;;;;;;;6.64;96.25;100429.47;31486571;28;20487;-84
2022/12/22 17:46:17;;;;;;;16.83;8.27;;;;;;;6.62;96.82;100433.72;31449062;28;20110;-84
2022/12/22 18:01:38;;;;;;;;;;;;;;;;;;;;;
2022/12/22 18:16:42;;;;;;;17.37;7.00;;;;;;;6.20;99.16;100413.59;31424544;28;20061;-78
2022/12/22 18:31:45;;;;;;;11.00;5.70;;;;;;;6.18;99.16;100410.50;31443192;28;20048;-85
2022/12/22 18:47:17;;;;;;;11.63;5.30;;;;;;;6.13;99.77;100411.66;31460658;28;20045;-84
2022/12/22 22:32:20;;;;;;;7.27;4.07;;;;;;;6.61;100.00;100006.00;31549723;27;20396;-74
2022/12/22 22:47:22;;;;;;;8.00;4.90;;;;;;;5.95;100.00;100089.38;31486572;28;20569;-73
2022/12/22 23:02:27;;;;;;;7.20;3.50;;;;;;;6.10;100.00;100102.47;31450824;28;20044;-75
2022/12/22 23:17:29;;;;;;;7.83;3.90;;;;;;;6.16;100.00;100124.38;31452856;28;20397;-73
2022/12/22 23:32:31;;;;;;;6.73;4.10;;;;;;;6.15;100.00;100152.47;31330843;28;20099;-73
2022/12/22 23:47:33;;;;;;;7.13;4.50;;;;;;;6.68;98.03;100173.97;31353753;28;20110;-73
